Home > Products > Valid Products > TAF

000
FTUS46 KLOX 222300
TAFPMD
TAF
KPMD 222335Z 2300/2324 24020G30KT P6SM SKC
     FM230300 23014KT P6SM SKC
     FM232100 24017G25KT P6SM SKC=



000
FTUS46 KLOX 222300
TAFSMX
TAF
KSMX 222335Z 2300/2324 31010KT P6SM SKC
     FM230400 VRB03KT P6SM BKN007
     FM230800 VRB03KT 4SM BR OVC005
     FM231500 VRB03KT P6SM OVC008
     FM231800 VRB03KT P6SM SCT013
     FM232000 30010KT P6SM SKC=



000
FTUS46 KLOX 222300
TAFLGB
TAF
KLGB 222335Z 2300/2324 30010KT P6SM SKC
     FM230400 VRB03KT P6SM SKC
     FM230700 VRB03KT P6SM OVC012
     FM231700 17006KT P6SM OVC017
     FM232000 19008KT P6SM SCT020=



000
FTUS46 KLOX 222300
TAFSBP
TAF
KSBP 222335Z 2300/2324 30010KT P6SM SKC
     FM230400 VRB03KT P6SM SKC
     FM230700 VRB03KT P6SM OVC007
     FM231600 VRB03KT P6SM BKN010
     FM231800 VRB03KT P6SM SCT013
     FM232000 30010KT P6SM SKC=



000
FTUS46 KLOX 222300
TAFSBA
TAF
KSBA 222335Z 2300/2324 25009KT P6SM FEW007
     FM230300 VRB03KT P6SM FEW007
     FM230800 VRB03KT 4SM BR OVC007
     FM231600 16006KT P6SM BKN012
     FM232000 23008KT P6SM SCT015=



000
FTUS46 KLOX 222300
TAFBUR
TAF
KBUR 222335Z 2300/2324 17009KT P6SM SKC
     FM230300 13006KT P6SM SKC
     FM231000 VRB03KT 5SM BR OVC007
     FM231700 VRB03KT 5SM HZ SKC
     FM232000 16009KT P6SM SKC=



000
FTUS46 KLOX 222300
TAFVNY
TAF
KVNY 222335Z 2300/2324 17009KT P6SM SKC
     FM230300 VRB03KT P6SM SKC
     FM231100 VRB03KT 5SM BR BKN007
     FM231600 VRB05KT P6SM SKC
     FM232000 14009KT P6SM SKC=



000
FTUS46 KLOX 222300
TAFPRB
TAF
KPRB 222335Z 2300/2324 20017G25KT P6SM SKC
     FM230200 20010KT P6SM SKC
     FM230700 VRB03KT P6SM SKC
     FM231300 VRB03KT 6SM BR OVC010
     FM231700 VRB05KT P6SM SKC
     FM232000 20012KT P6SM SKC
     FM232200 20015G22KT P6SM SKC=



000
FTUS46 KLOX 222300
TAFWJF
TAF
KWJF 222335Z 2300/2324 24022G30KT P6SM SKC
     FM230200 23016KT P6SM SKC
     FM232100 24020G28KT P6SM SKC=



000
FTUS46 KLOX 222300
TAFLAX
TAF
KLAX 222335Z 2300/2406 26012KT P6SM FEW015
     FM230500 25006KT P6SM OVC010
     FM231700 23006KT P6SM OVC015
     FM232000 26013KT P6SM SCT017
     FM240400 25007KT P6SM BKN012=



000
FTUS46 KLOX 222000 AAA
TAFLAX
TAF AMD
KLAX 222017Z 2220/2324 25008KT P6SM FEW025
     FM222200 26014KT P6SM FEW070
     FM230300 28010KT P6SM FEW070
     FM230800 28006KT P6SM BKN010
     FM231000 VRB03KT P6SM OVC010
     FM231700 23006KT P6SM SCT010 BKN015
     FM232100 26015KT P6SM SKC=



000
FTUS46 KLOX 222000 AAA
TAFSBP
TAF AMD
KSBP 222014Z 2220/2318 27010KT P6SM SKC
     FM230300 31006KT P6SM SKC
     FM230700 VRB03KT P6SM BKN007
     FM231000 VRB03KT 5SM BR OVC005
     FM231700 VRB03KT P6SM SCT010=



000
FTUS46 KLOX 221900 AAA
TAFPRB
TAF AMD
KPRB 221959Z 2220/2318 20015G25KT P6SM SKC
     FM230200 19010KT P6SM SKC
     FM230700 VRB03KT P6SM SKC
     FM231400 VRB03KT 6SM BR OVC015
     FM231700 VRB05KT P6SM SKC=



000
FTUS46 KLOX 221900 AAA
TAFWJF
TAF AMD
KWJF 221958Z 2220/2318 24020G32KT P6SM SKC
     FM230200 23016KT P6SM SKC
     FM231400 23008KT P6SM SKC=



000
FTUS46 KLOX 221900 AAA
TAFPMD
TAF AMD
KPMD 221958Z 2220/2318 24018KT P6SM SKC
     FM222200 24020G30KT P6SM SKC
     FM230300 23014KT P6SM SKC
     FM230700 23005KT P6SM SKC
     FM231700 22012KT P6SM SKC=



000
FTUS46 KLOX 221900 AAA
TAFLGB
TAF AMD
KLGB 221957Z 2220/2318 19005KT P6SM SCT020
     FM222000 18007KT P6SM SKC
     FM222300 30010KT P6SM SKC
     FM230400 VRB03KT P6SM SKC
     FM230900 VRB03KT P6SM BKN012
     FM231100 VRB03KT P6SM OVC010=



000
FTUS46 KLOX 221700
TAFSBA
TAF
KSBA 221738Z 2218/2318 VRB03KT 3SM BR OVC004
     FM221900 16006KT 6SM BR SCT010
     FM222100 25010KT P6SM SKC
     FM230300 VRB03KT P6SM SKC
     FM230800 VRB03KT P6SM BKN007
     FM231100 11005KT 6SM BR OVC005
     FM231430 VRB05KT 1SM BR OVC002
     FM231600 VRB05KT 5SM BR OVC005=



000
FTUS46 KLOX 221700
TAFSMX
TAF
KSMX 221737Z 2218/2318 VRB03KT 6SM BR SCT010
     FM222000 30012KT P6SM SKC
     FM230200 29007KT P6SM SKC
     FM230400 VRB03KT P6SM BKN006
     FM230800 VRB03KT 3SM BR OVC004
     FM231730 VRB03KT P6SM SCT010=



000
FTUS46 KLOX 221700
TAFSBP
TAF
KSBP 221737Z 2218/2318 VRB03KT P6SM SCT010
     FM222000 29012KT P6SM SKC
     FM230300 31006KT P6SM SKC
     FM230700 VRB03KT P6SM BKN007
     FM231000 VRB03KT 5SM BR OVC005
     FM231700 VRB03KT P6SM SCT010=



000
FTUS46 KLOX 221700
TAFPRB
TAF
KPRB 221735Z 2218/2318 VRB03KT P6SM SKC
     FM222200 20015KT P6SM SKC
     FM230200 19010KT P6SM SKC
     FM230700 VRB03KT P6SM SKC
     FM231400 VRB03KT 6SM BR OVC015
     FM231700 VRB05KT P6SM SKC=



000
FTUS46 KLOX 221700
TAFLAX
TAF
KLAX 221732Z 2218/2324 26007KT P6SM SCT010 BKN016
     FM221900 26006KT P6SM SCT016
     FM222100 26014KT P6SM FEW070
     FM230300 28010KT P6SM FEW070
     FM230800 28006KT P6SM BKN010
     FM231000 VRB03KT P6SM OVC010
     FM231700 23006KT P6SM SCT010 BKN015
     FM232100 26015KT P6SM SKC=



000
FTUS46 KLOX 221700
TAFVNY
TAF
KVNY 221732Z 2218/2318 VRB03KT P6SM SKC
     FM222100 14008KT P6SM SKC
     FM230300 VRB03KT P6SM SKC
     FM231200 VRB03KT 5SM BR BKN006
     FM231600 VRB05KT P6SM SKC=



000
FTUS46 KLOX 221700
TAFBUR
TAF
KBUR 221732Z 2218/2318 VRB05KT P6SM SKC
     FM222000 17008KT P6SM SKC
     FM230300 VRB03KT P6SM SKC
     FM231100 VRB03KT 5SM BR BKN006
     FM231600 15005KT P6SM SKC=



000
FTUS46 KLOX 221700
TAFLGB
TAF
KLGB 221732Z 2218/2318 25005KT P6SM OVC017
      TEMPO 2218/2219 SCT020
     FM222000 18007KT P6SM SKC
     FM222300 30010KT P6SM SKC
     FM230400 VRB03KT P6SM SKC
     FM230900 VRB03KT P6SM BKN012
     FM231100 VRB03KT P6SM OVC010=



000
FTUS46 KLOX 221700
TAFWJF
TAF
KWJF 221732Z 2218/2318 23015KT P6SM SKC
     FM222200 24025G32KT P6SM SKC
     FM230200 23016KT P6SM SKC
     FM231400 23008KT P6SM SKC=



000
FTUS46 KLOX 221700
TAFPMD
TAF
KPMD 221732Z 2218/2318 22011KT P6SM SKC
     FM222000 24012KT P6SM SKC
     FM222200 24020G30KT P6SM SKC
     FM230300 23014KT P6SM SKC
     FM230700 23005KT P6SM SKC
     FM231700 22012KT P6SM SKC=



000
FTUS46 KLOX 221700 AAD
TAFLAX
TAF AMD
KLAX 221707Z 2217/2318 26007KT P6SM SCT010 BKN016
     FM221800 26006KT P6SM SCT016
     FM222000 26014KT P6SM SKC
     FM230300 28010KT P6SM SKC
     FM230700 28006KT P6SM BKN010
     FM230900 VRB03KT P6SM OVC012
     FM231630 23006KT P6SM SCT015=



000
FTUS46 KLOX 221700 AAD
TAFLGB
TAF AMD
KLGB 221703Z 2217/2312 VRB05KT P6SM OVC017
      TEMPO 2217/2218 SCT020
     FM221800 18007KT P6SM SKC
     FM222300 30010KT P6SM SKC
     FM230400 VRB03KT P6SM SKC
     FM231000 VRB03KT P6SM BKN012=



000
FTUS46 KLOX 221600 AAD
TAFSBP
TAF AMD
KSBP 221642Z 2217/2312 VRB03KT P6SM SCT010
     FM222000 29012KT P6SM SKC
     FM230300 31006KT P6SM SKC
     FM230700 VRB03KT P6SM BKN007
     FM231000 VRB03KT 5SM BR OVC005=



000
FTUS46 KLOX 221600 AAA
TAFSMX
TAF AMD
KSMX 221616Z 2216/2312 VRB03KT 5SM BR SCT008
     FM221700 VRB03KT 6SM BR SCT008
     FM222000 30012KT P6SM SKC
     FM230200 29007KT P6SM SKC
     FM230400 VRB03KT P6SM BKN006
     FM230800 VRB03KT 4SM BR OVC004=



000
FTUS46 KLOX 221600 AAC
TAFSBP
TAF AMD
KSBP 221606Z 2216/2312 VRB03KT P6SM OVC005
     FM222000 VRB03KT P6SM SCT010
     FM222200 29012KT P6SM SKC
     FM230300 31006KT P6SM SKC
     FM230700 VRB03KT P6SM BKN007
     FM231000 VRB03KT 5SM BR OVC005=



000
FTUS46 KLOX 221500 AAC
TAFLGB
TAF AMD
KLGB 221508Z 2215/2312 VRB05KT P6SM OVC011
      TEMPO 2216/2218 SCT011
     FM221800 18007KT P6SM SKC
     FM222300 30010KT P6SM SKC
     FM230400 VRB03KT P6SM SKC
     FM231000 VRB03KT P6SM BKN012=



000
FTUS46 KLOX 221500 AAC
TAFSBA
TAF AMD
KSBA 221508Z 2215/2312 VRB03KT 1/2SM FG VV002
     FM221700 VRB03KT 2SM BR OVC006
     FM221900 16006KT 6SM BR SCT010
     FM222100 25010KT P6SM SKC
     FM230300 VRB03KT P6SM SKC
     FM230800 VRB03KT P6SM BKN007
     FM231100 11005KT 6SM BR OVC005=



000
FTUS46 KLOX 221500 AAC
TAFLAX
TAF AMD
KLAX 221502Z 2215/2318 26007KT P6SM BKN010
      TEMPO 2216/2218 SCT015
     FM221800 26006KT P6SM SKC
     FM222000 26014KT P6SM SKC
     FM230300 28010KT P6SM SKC
     FM230700 28006KT P6SM BKN010
     FM230900 VRB03KT P6SM OVC012
     FM231630 23006KT P6SM SCT015=



000
FTUS46 KLOX 221400 AAB
TAFSBA
TAF AMD
KSBA 221409Z 2214/2312 VRB03KT 1SM BR OVC003
     FM221500 VRB03KT 3SM BR OVC006
     FM221700 16006KT 6SM BR SCT010
     FM222000 25010KT P6SM SKC
     FM230300 VRB03KT P6SM SKC
     FM230800 VRB03KT P6SM BKN007
     FM231100 11005KT 6SM BR OVC005=



000
FTUS46 KLOX 221400 AAB
TAFSBP
TAF AMD
KSBP 221408Z 2214/2312 VRB03KT P6SM OVC005
     FM221600 VRB03KT P6SM SCT010
     FM222200 29012KT P6SM SKC
     FM230300 31006KT P6SM SKC
     FM230700 VRB03KT P6SM BKN007
     FM231000 VRB03KT 5SM BR OVC005=



000
FTUS46 KLOX 221400 AAB
TAFLGB
TAF AMD
KLGB 221408Z 2214/2312 VRB05KT P6SM SCT011
      TEMPO 2214/2216 BKN011
     FM221700 18007KT P6SM SKC
     FM222300 30010KT P6SM SKC
     FM230400 VRB03KT P6SM SKC
     FM231000 VRB03KT P6SM BKN012=



000
FTUS46 KLOX 221300 AAA
TAFSBA
TAF AMD
KSBA 221322Z 2213/2312 VRB03KT 2SM BR OVC003
     FM221500 VRB03KT 4SM BR OVC006
     FM221700 16006KT P6SM SCT010
     FM222000 25010KT P6SM SKC
     FM230300 VRB03KT P6SM SKC
     FM230800 VRB03KT P6SM BKN007
     FM231100 11005KT 6SM BR OVC005=



000
FTUS46 KLOX 221300 AAB
TAFLAX
TAF AMD
KLAX 221320Z 2213/2318 26006KT P6SM SCT010
      TEMPO 2213/2215 BKN012
     FM221700 26006KT P6SM SKC
     FM222000 26014KT P6SM SKC
     FM230300 28010KT P6SM SKC
     FM230700 28006KT P6SM BKN010
     FM230900 VRB03KT P6SM OVC012
     FM231630 23006KT P6SM SCT015=



000
FTUS46 KLOX 221300 AAA
TAFLGB
TAF AMD
KLGB 221320Z 2213/2312 VRB03KT P6SM SKC
     FM221700 18007KT P6SM SKC
     FM222300 30010KT P6SM SKC
     FM230400 VRB03KT P6SM SKC
     FM231000 VRB03KT P6SM BKN012=



000
FTUS46 KLOX 221200 AAA
TAFSBP
TAF AMD
KSBP 221201Z 2212/2312 VRB03KT P6SM OVC005
     FM221400 VRB03KT P6SM OVC007
     FM221600 VRB03KT P6SM SCT010
     FM222200 29012KT P6SM SKC
     FM230300 31006KT P6SM SKC
     FM230700 VRB03KT P6SM BKN007
     FM231000 VRB03KT 5SM BR OVC005=



000
FTUS46 KLOX 221200 AAA
TAFLAX
TAF AMD
KLAX 221200Z 2212/2318 VRB03KT P6SM BKN010
     FM221700 26006KT P6SM SCT015
     FM222000 26014KT P6SM SKC
     FM230300 28010KT P6SM SKC
     FM230700 28006KT P6SM BKN010
     FM230900 VRB03KT P6SM OVC012
     FM231630 23006KT P6SM SCT015=



000
FTUS46 KLOX 221100
TAFSBA
TAF
KSBA 221132Z 2212/2312 VRB03KT P6SM OVC005
     FM221600 16006KT P6SM SCT010
     FM222000 25010KT P6SM SKC
     FM230300 VRB03KT P6SM SKC
     FM230800 VRB03KT P6SM BKN007
     FM231100 11005KT 6SM BR OVC005=



000
FTUS46 KLOX 221100
TAFLGB
TAF
KLGB 221132Z 2212/2312 VRB03KT P6SM SKC
     FM221300 VRB03KT P6SM BKN012
     FM221700 18007KT P6SM SKC
     FM222300 30010KT P6SM SKC
     FM230400 VRB03KT P6SM SKC
     FM231000 VRB03KT P6SM BKN012=



000
FTUS46 KLOX 221100
TAFLAX
TAF
KLAX 221132Z 2212/2318 VRB03KT P6SM SCT012
     FM221300 VRB03KT P6SM BKN012
     FM221700 26006KT P6SM SCT015
     FM222000 26014KT P6SM SKC
     FM230300 28010KT P6SM SKC
     FM230700 28006KT P6SM BKN010
     FM230900 VRB03KT P6SM OVC012
     FM231630 23006KT P6SM SCT015=



000
FTUS46 KLOX 221100
TAFSBP
TAF
KSBP 221132Z 2212/2312 VRB03KT P6SM OVC007
     FM221600 VRB03KT P6SM SCT010
     FM222200 29012KT P6SM SKC
     FM230300 31006KT P6SM SKC
     FM230700 VRB03KT P6SM BKN007
     FM231000 VRB03KT 5SM BR OVC005=



000
FTUS46 KLOX 221100
TAFBUR
TAF
KBUR 221132Z 2212/2312 VRB03KT P6SM SKC
     FM222000 17008KT P6SM SKC
     FM230300 VRB03KT P6SM SKC
     FM230900 VRB03KT 5SM BR BKN006=



000
FTUS46 KLOX 221100
TAFWJF
TAF
KWJF 221132Z 2212/2312 29006KT P6SM SKC
     FM221800 24015KT P6SM SKC
     FM222200 24025G32KT P6SM SKC
     FM230200 23016KT P6SM SKC=



000
FTUS46 KLOX 221100
TAFSMX
TAF
KSMX 221132Z 2212/2312 VRB03KT 4SM BR OVC004
     FM221500 VRB03KT 6SM BR OVC006
     FM221700 VRB03KT P6SM SKC
     FM222000 30012KT P6SM SKC
     FM230200 29007KT P6SM SKC
     FM230400 VRB03KT P6SM BKN006
     FM230800 VRB03KT 4SM BR OVC004=



000
FTUS46 KLOX 221100
TAFPMD
TAF
KPMD 221132Z 2212/2312 22008KT P6SM SKC
     FM222000 24012KT P6SM SKC
     FM222200 24020G30KT P6SM SKC
     FM230300 23014KT P6SM SKC=



000
FTUS46 KLOX 221100
TAFPRB
TAF
KPRB 221132Z 2212/2312 VRB03KT P6SM SKC
     FM222200 20015KT P6SM SKC
     FM230200 19010KT P6SM SKC
     FM230700 VRB03KT P6SM SKC=



000
FTUS46 KLOX 221100
TAFVNY
TAF
KVNY 221132Z 2212/2312 VRB03KT P6SM SKC
     FM222100 14008KT P6SM SKC
     FM230300 VRB03KT P6SM SKC
     FM231000 VRB03KT 5SM BR BKN006=



000
FTUS46 KLOX 221000 AAB
TAFSBA
TAF AMD
KSBA 221059Z 2211/2306 VRB03KT P6SM OVC005
     FM221600 16006KT P6SM SCT010
     FM222000 25010KT P6SM SKC
     FM230300 VRB03KT P6SM SKC=



000
FTUS46 KLOX 220900 AAA
TAFLGB
TAF AMD
KLGB 220900Z 2209/2306 VRB03KT P6SM SKC
     FM221100 VRB03KT P6SM OVC012
     FM221700 18007KT P6SM SKC
     FM222300 30010KT P6SM SKC
     FM230400 VRB03KT P6SM SKC=



000
FTUS46 KLOX 220900 AAB
TAFLAX
TAF AMD
KLAX 220900Z 2209/2312 26005KT P6SM SCT015
     FM221100 VRB03KT P6SM OVC010
     FM221700 26006KT P6SM SCT012
     FM222000 26014KT P6SM FEW015
     FM230300 28010KT P6SM FEW015
     FM230600 28006KT P6SM BKN010=



000
FTUS46 KLOX 220800 AAA
TAFLAX
TAF AMD
KLAX 220819Z 2208/2312 27005KT P6SM SCT015
     FM221100 VRB03KT P6SM OVC010
     FM221700 26006KT P6SM SCT012
     FM222000 26014KT P6SM FEW015
     FM230300 28010KT P6SM FEW015
     FM230600 28006KT P6SM BKN010=



000
FTUS46 KLOX 220800 AAA
TAFSMX
TAF AMD
KSMX 220818Z 2208/2306 VRB03KT P6SM OVC006
     FM221000 VRB03KT 3SM BR OVC004
     FM221700 VRB03KT P6SM SKC
     FM222000 30012KT P6SM SKC
     FM230200 29007KT P6SM SKC=



000
FTUS46 KLOX 220800 AAA
TAFSBA
TAF AMD
KSBA 220817Z 2208/2306 VRB03KT P6SM BKN007
     FM221600 16006KT P6SM SCT010
     FM222000 25010KT P6SM SKC
     FM230300 VRB03KT P6SM SKC=



000
FTUS46 KLOX 220500
TAFPRB
TAF
KPRB 220534Z 2206/2306 VRB03KT P6SM SKC
     FM222200 20015KT P6SM SKC
     FM230200 19010KT P6SM SKC=



000
FTUS46 KLOX 220500
TAFLAX
TAF
KLAX 220534Z 2206/2312 28007KT P6SM SCT015
     FM220800 VRB03KT P6SM OVC010
     FM221700 26006KT P6SM SCT012
     FM222000 26014KT P6SM FEW015
     FM230300 28010KT P6SM FEW015
     FM230600 28006KT P6SM BKN010=



000
FTUS46 KLOX 220500
TAFSBP
TAF
KSBP 220534Z 2206/2306 31006KT P6SM SKC
     FM220900 VRB03KT P6SM BKN007
     FM221100 VRB03KT 4SM BR OVC004
     FM221600 VRB03KT P6SM SKC
     FM222200 30012KT P6SM SKC
     FM230300 31006KT P6SM SKC=



000
FTUS46 KLOX 220500
TAFBUR
TAF
KBUR 220534Z 2206/2306 VRB03KT P6SM SKC
     FM221300 VRB03KT 5SM HZ SKC
     FM221700 VRB03KT P6SM SKC
     FM222000 17008KT P6SM SKC
     FM230300 VRB03KT P6SM SKC=



000
FTUS46 KLOX 220500
TAFLGB
TAF
KLGB 220534Z 2206/2306 VRB03KT P6SM SKC
     FM220900 VRB03KT P6SM OVC012
     FM221700 18007KT P6SM SKC
     FM222300 30010KT P6SM SKC
     FM230400 VRB03KT P6SM SKC=



000
FTUS46 KLOX 220500
TAFVNY
TAF
KVNY 220534Z 2206/2306 VRB03KT P6SM SKC
     FM221300 VRB03KT 5SM HZ SKC
     FM221700 VRB03KT P6SM SKC
     FM222100 14008KT P6SM SKC
     FM230300 VRB03KT P6SM SKC=



000
FTUS46 KLOX 220500
TAFWJF
TAF
KWJF 220534Z 2206/2306 26014KT P6SM SKC
     FM220800 23008KT P6SM SKC
     FM222000 24015KT P6SM SKC
     FM222200 24020G28KT P6SM SKC
     FM230200 24016KT P6SM SKC=



000
FTUS46 KLOX 220500
TAFSBA
TAF
KSBA 220534Z 2206/2306 VRB03KT P6SM SKC
     FM221100 VRB03KT 5SM BR BKN007
     FM221600 16006KT P6SM SCT010
     FM222000 25010KT P6SM SKC
     FM230300 VRB03KT P6SM SKC=



000
FTUS46 KLOX 220500
TAFSMX
TAF
KSMX 220534Z 2206/2306 VRB03KT P6SM BKN006
     FM220800 VRB03KT 3SM BR OVC004
     FM221000 VRB03KT 1/2SM FG VV001
     FM221400 VRB03KT 3SM BR OVC003
     FM221700 VRB03KT P6SM SKC
     FM222000 30012KT P6SM SKC
     FM230200 29007KT P6SM SKC=



000
FTUS46 KLOX 220500
TAFPMD
TAF
KPMD 220534Z 2206/2306 26010KT P6SM SKC
     FM220900 VRB05KT P6SM SKC
     FM222000 24012KT P6SM SKC
     FM222200 24018G26KT P6SM SKC
     FM230300 25012KT P6SM SKC=



000
FTUS46 KLOX 220200 AAA
TAFLAX
TAF AMD
KLAX 220258Z 2203/2306 26008KT P6SM FEW015 SCT120
     FM220600 VRB03KT P6SM OVC012
     FM221700 23005KT P6SM SCT015
     FM222000 25012KT P6SM SKC
     FM230400 25006KT P6SM BKN012=



000
FTUS46 KLOX 212300
TAFPRB
TAF
KPRB 212331Z 2200/2224 21015KT P6SM SKC
     FM220400 20008KT P6SM SKC
     FM220800 VRB03KT P6SM SKC
     FM222000 21012KT P6SM SKC
     FM222200 21015G22KT P6SM SKC=



000
FTUS46 KLOX 212300
TAFLGB
TAF
KLGB 212331Z 2200/2224 29009KT P6SM SKC
     FM220500 VRB03KT P6SM SKC
     FM220800 VRB03KT P6SM OVC013
     FM221700 18006KT P6SM SCT017
     FM221900 19008KT P6SM SKC=



000
FTUS46 KLOX 212300
TAFLAX
TAF
KLAX 212331Z 2200/2306 26012KT P6SM FEW015 SCT100
     FM220300 26007KT P6SM SKC
     FM220600 VRB03KT P6SM OVC012
     FM221700 23005KT P6SM SCT015
     FM222000 25012KT P6SM SKC
     FM230400 25006KT P6SM BKN012=



000
FTUS46 KLOX 212300
TAFSMX
TAF
KSMX 212331Z 2200/2224 31013KT P6SM SKC
     FM220300 32007KT P6SM SKC
     FM220500 VRB03KT 3SM BR OVC003
     FM221000 VRB03KT 1/2SM FG VV001
     FM221400 VRB03KT 3SM BR OVC003
     FM221600 VRB03KT P6SM SKC
     FM221900 30010KT P6SM SKC=



000
FTUS46 KLOX 212300
TAFWJF
TAF
KWJF 212331Z 2200/2224 25018G25KT P6SM SCT100
     FM220300 23014KT P6SM SCT150
     FM220900 23008KT P6SM SKC
     FM222000 24015KT P6SM SKC
     FM222200 24020G28KT P6SM SKC=



000
FTUS46 KLOX 212300
TAFVNY
TAF
KVNY 212331Z 2200/2224 14009KT P6SM SKC
     FM220300 VRB03KT P6SM SKC
     FM221300 VRB03KT 5SM HZ SKC
     FM221700 VRB03KT P6SM SKC
     FM222000 14008KT P6SM SKC=



000
FTUS46 KLOX 212300
TAFSBP
TAF
KSBP 212331Z 2200/2224 31012KT P6SM SKC
     FM220200 32007KT P6SM SKC
     FM220800 VRB03KT P6SM BKN007
     FM221100 VRB03KT 3SM BR OVC004
     FM221600 VRB03KT P6SM SKC
     FM221900 30010KT P6SM SKC=



000
FTUS46 KLOX 212300
TAFPMD
TAF
KPMD 212331Z 2200/2224 26015G22KT P6SM VCTS SCT080CB BKN100
     FM220300 23012KT P6SM SCT150
     FM220900 VRB03KT P6SM SKC
     FM222000 24012KT P6SM SKC
     FM222200 24017G25KT P6SM SKC=



000
FTUS46 KLOX 212300
TAFBUR
TAF
KBUR 212331Z 2200/2224 17008KT P6SM SKC
     FM220400 VRB03KT P6SM SKC
     FM221300 VRB03KT 5SM HZ SKC
     FM221700 VRB03KT P6SM SKC
     FM222000 16010KT P6SM SKC=



000
FTUS46 KLOX 212300
TAFSBA
TAF
KSBA 212331Z 2200/2224 25008KT P6SM SKC
     FM220300 VRB03KT P6SM SKC
     FM221100 10005KT 3SM BR BKN007
     FM221600 13005KT P6SM SCT009
     FM221800 21007KT P6SM SKC
     FM222100 25009KT P6SM SKC=



000
FTUS46 KLOX 212100 AAA
TAFWJF
TAF AMD
KWJF 212100Z 2121/2218 00000KT P6SM SKC
     FM212300 24018G25KT P6SM VCTS FEW070CB SCT150
     FM220300 23014KT P6SM SCT150
     FM220900 23008KT P6SM SKC=



000
FTUS46 KLOX 212000 AAA
TAFLAX
TAF AMD
KLAX 212031Z 2121/2224 24012KT P6SM FEW020 SCT100
     FM220300 28005KT P6SM SKC
     FM220600 VRB03KT P6SM OVC012
     FM221700 23005KT P6SM SCT017
     FM222000 25012KT P6SM SKC=



000
FTUS46 KLOX 211900 AAA
TAFLGB
TAF AMD
KLGB 211921Z 2119/2218 21009KT P6SM SKC
     FM220200 30010KT P6SM SKC
     FM220500 VRB03KT P6SM SKC
     FM220900 VRB03KT P6SM OVC012=



000
FTUS46 KLOX 211700
TAFSBP
TAF
KSBP 211737Z 2118/2218 32005KT P6SM SCT006
     FM212000 31012KT P6SM SKC
     FM220200 32007KT P6SM SKC
     FM220700 VRB03KT P6SM BKN007
     FM221000 VRB03KT 3SM BR OVC004=



000
FTUS46 KLOX 211700
TAFSMX
TAF
KSMX 211737Z 2118/2218 34005KT P6SM SKC
     FM212000 32012KT P6SM SKC
     FM220400 32007KT P6SM BKN005
     FM220700 VRB03KT 3SM BR OVC003
     FM221000 VRB03KT 1/2SM FG VV001=



000
FTUS46 KLOX 211700
TAFPMD
TAF
KPMD 211737Z 2118/2218 00000KT P6SM SKC
     FM211900 25012KT P6SM SKC
     FM212200 24015G22KT P6SM VCTS FEW070CB SCT150
     FM220300 23012KT P6SM SCT150
     FM220900 VRB05KT P6SM SKC=



000
FTUS46 KLOX 211700
TAFLGB
TAF
KLGB 211737Z 2118/2218 24003KT P6SM OVC020
     FM220200 30010KT P6SM SKC
     FM220500 VRB03KT P6SM SKC
     FM220900 VRB03KT P6SM OVC012=



000
FTUS46 KLOX 211700
TAFBUR
TAF
KBUR 211737Z 2118/2218 00000KT P6SM SKC
     FM211900 17008KT P6SM SKC
     FM220400 VRB03KT P6SM SKC
     FM221000 VRB03KT 4SM BR OVC008=



000
FTUS46 KLOX 211700
TAFLAX
TAF
KLAX 211737Z 2118/2224 26006KT P6SM SCT016 BKN150
     FM212100 27012KT P6SM SKC
     FM220300 28005KT P6SM SKC
     FM220600 VRB03KT P6SM OVC012
     FM221700 23005KT P6SM SCT017
     FM222000 25012KT P6SM SKC=



000
FTUS46 KLOX 211700
TAFVNY
TAF
KVNY 211737Z 2118/2218 00000KT P6SM SKC
     FM212000 14008KT P6SM SKC
     FM220400 VRB03KT P6SM SKC
     FM221000 VRB03KT 4SM BR OVC008=



000
FTUS46 KLOX 211700
TAFSBA
TAF
KSBA 211737Z 2118/2218 15005KT P6SM SKC
     FM212000 25008KT P6SM SKC
     FM220400 VRB03KT P6SM SKC
     FM220800 10005KT 3SM BR OVC006=



000
FTUS46 KLOX 211700
TAFWJF
TAF
KWJF 211737Z 2118/2218 00000KT P6SM SKC
     FM211900 25012KT P6SM SKC
     FM212200 24018G25KT P6SM VCTS FEW070CB SCT150
     FM220300 23014KT P6SM SCT150
     FM220900 23008KT P6SM SKC=



000
FTUS46 KLOX 211700
TAFPRB
TAF
KPRB 211737Z 2118/2218 00000KT P6SM SKC
     FM212000 20008KT P6SM SKC
     FM212300 21015KT P6SM SKC
     FM220400 19008KT P6SM SKC
     FM220800 VRB03KT P6SM SKC=



000
FTUS46 KLOX 211500 AAA
TAFLGB
TAF AMD
KLGB 211506Z 2115/2212 33004KT P6SM OVC016
     FM211700 17008KT P6SM SKC
     FM220200 30010KT P6SM SKC
     FM220500 VRB03KT P6SM SKC
     FM221000 VRB03KT P6SM BKN010=



000
FTUS46 KLOX 211500 AAC
TAFLAX
TAF AMD
KLAX 211505Z 2115/2218 24004KT P6SM FEW012 BKN016
     FM211600 27007KT P6SM SCT018
     FM212100 27012KT P6SM SKC
     FM220500 28007KT P6SM SKC
     FM220800 VRB03KT P6SM BKN010
     FM221600 23005KT P6SM SCT015=



000
FTUS46 KLOX 211400 AAA
TAFSMX
TAF AMD
KSMX 211415Z 2114/2212 VRB03KT P6SM SKC
     FM212000 32012KT P6SM SKC
     FM220400 32007KT P6SM BKN005
     FM220700 VRB03KT 3SM BR OVC003
     FM221000 VRB03KT 1/2SM FG VV001=



000
FTUS46 KLOX 211300 AAA
TAFSBP
TAF AMD
KSBP 211353Z 2114/2212 00000KT P6SM BKN004
     FM211600 VRB03KT P6SM SCT005
     FM212000 31012KT P6SM SKC
     FM220200 32007KT P6SM SKC
     FM220600 VRB03KT P6SM BKN007
     FM220900 VRB03KT 3SM BR OVC004=



000
FTUS46 KLOX 211200 AAB
TAFLAX
TAF AMD
KLAX 211243Z 2113/2218 28005KT P6SM BKN016
     FM211300 VRB03KT P6SM OVC016
     FM211600 27007KT P6SM SCT018
     FM212100 27012KT P6SM SKC
     FM220500 28007KT P6SM SKC
     FM220800 VRB03KT P6SM BKN010
     FM221600 23005KT P6SM SCT015=



000
FTUS46 KLOX 211200 AAA
TAFLAX
TAF AMD
KLAX 211214Z 2112/2218 28005KT P6SM BKN016
     FM211300 VRB03KT P6SM OVC016
     FM211800 27007KT P6SM SCT018
     FM212100 27012KT P6SM SKC
     FM220500 28007KT P6SM SKC
     FM220800 VRB03KT P6SM BKN010
     FM221600 23005KT P6SM SCT015=



000
FTUS46 KLOX 211100
TAFSMX
TAF
KSMX 211131Z 2112/2212 VRB03KT P6SM SKC
     FM211400 VRB03KT 6SM BR BKN004
     FM211700 VRB03KT P6SM SKC
     FM212000 32012KT P6SM SKC
     FM220400 32007KT P6SM BKN005
     FM220700 VRB03KT 3SM BR OVC003
     FM221000 VRB03KT 1/2SM FG VV001=



000
FTUS46 KLOX 211100
TAFWJF
TAF
KWJF 211131Z 2112/2212 VRB05KT P6SM SKC
     FM212100 24018G25KT P6SM VCTS FEW070CB SCT150
     FM220300 23014KT P6SM SCT150
     FM220900 23008KT P6SM SKC=



000
FTUS46 KLOX 211100
TAFSBP
TAF
KSBP 211131Z 2112/2212 VRB03KT P6SM SKC
     FM212000 31012KT P6SM SKC
     FM220200 32007KT P6SM SKC
     FM220600 VRB03KT P6SM BKN007
     FM220900 VRB03KT 3SM BR OVC004=



000
FTUS46 KLOX 211100
TAFBUR
TAF
KBUR 211131Z 2112/2212 VRB03KT P6SM SKC
     FM211900 17008KT P6SM SKC
     FM220400 VRB03KT P6SM SKC=



000
FTUS46 KLOX 211100
TAFPMD
TAF
KPMD 211131Z 2112/2212 20007KT P6SM SKC
     FM212100 24015G22KT P6SM VCTS FEW070CB SCT150
     FM220300 23012KT P6SM SCT150
     FM220900 VRB05KT P6SM SKC=



000
FTUS46 KLOX 211100
TAFVNY
TAF
KVNY 211131Z 2112/2212 VRB03KT P6SM SKC
     FM212000 14008KT P6SM SKC
     FM220400 VRB03KT P6SM SKC=



000
FTUS46 KLOX 211100
TAFSBA
TAF
KSBA 211131Z 2112/2212 VRB03KT P6SM SKC
     FM211700 17006KT P6SM SKC
     FM212000 25008KT P6SM SKC
     FM220400 VRB03KT P6SM SKC
     FM221000 10005KT 6SM BR BKN006=



000
FTUS46 KLOX 211100
TAFLAX
TAF
KLAX 211131Z 2112/2218 26005KT P6SM SCT012
     FM211300 VRB03KT P6SM BKN012
     FM211800 27007KT P6SM SCT015
     FM212100 27012KT P6SM SKC
     FM220500 28007KT P6SM SKC
     FM220800 VRB03KT P6SM BKN010
     FM221600 23005KT P6SM SCT015=



000
FTUS46 KLOX 211100
TAFLGB
TAF
KLGB 211131Z 2112/2212 VRB03KT P6SM SKC
     FM211300 VRB03KT P6SM SKC
     FM211700 17008KT P6SM SKC
     FM220200 30010KT P6SM SKC
     FM220500 VRB03KT P6SM SKC
     FM221000 VRB03KT P6SM BKN010=



000
FTUS46 KLOX 211100
TAFPRB
TAF
KPRB 211131Z 2112/2212 VRB03KT P6SM SKC
     FM212000 20008KT P6SM SKC
     FM212300 21015KT P6SM SKC
     FM220400 19008KT P6SM SKC
     FM220800 VRB03KT P6SM SKC=



000
FTUS46 KLOX 210900 AAA
TAFSBP
TAF AMD
KSBP 210903Z 2109/2206 31008KT P6SM SKC
     FM211100 VRB03KT P6SM OVC008
     FM211400 VRB03KT 6SM BR OVC005
     FM211600 VRB03KT P6SM SKC
     FM212000 31012KT P6SM SKC
     FM220500 32007KT P6SM SKC=



000
FTUS46 KLOX 210800 AAA
TAFSMX
TAF AMD
KSMX 210851Z 2109/2206 VRB03KT P6SM SKC
     FM211000 VRB03KT P6SM OVC005
     FM211300 VRB03KT 4SM BR OVC003
     FM211700 VRB03KT P6SM SKC
     FM212000 32012KT P6SM SKC
     FM220500 32007KT P6SM BKN005=



000
FTUS46 KLOX 210800 CCA
TAFLAX
TAF COR
KLAX 210851Z 2109/2212 24005KT P6SM SKC
     FM211100 VRB03KT P6SM OVC012
     FM211800 27007KT P6SM SCT015
     FM212100 27012KT P6SM SKC
     FM220500 28007KT P6SM SKC
     FM220900 VRB03KT P6SM BKN010=



000
FTUS46 KLOX 210500
TAFSBA
TAF
KSBA 210522Z 2106/2206 VRB03KT P6SM SKC
     FM211200 VRB03KT P6SM BKN008
     FM211700 17006KT P6SM FEW010
     FM212000 25008KT P6SM SKC
     FM220400 VRB03KT P6SM SKC=



000
FTUS46 KLOX 210500
TAFVNY
TAF
KVNY 210522Z 2106/2206 VRB03KT P6SM SKC
     FM211200 VRB03KT 6SM BR BKN008
     FM211600 VRB03KT P6SM SKC
     FM212000 14008KT P6SM SKC
     FM220400 VRB03KT P6SM SKC=



000
FTUS46 KLOX 210500
TAFLAX
TAF
KLAX 210522Z 2106/2212 26008KT P6SM FEW015
     FM210800 VRB03KT P6SM OVC012
     FM211800 27007KT P6SM SCT015
     FM212100 27012KT P6SM SKC
     FM220500 28007KT P6SM SKC
     FM220900 VRB03KT P6SM BKN010=



000
FTUS46 KLOX 210500
TAFLGB
TAF
KLGB 210522Z 2106/2206 VRB03KT P6SM SKC
     FM211000 VRB03KT P6SM OVC012
     FM211700 17008KT P6SM SKC
     FM220200 30010KT P6SM SKC=



000
FTUS46 KLOX 210500
TAFPRB
TAF
KPRB 210522Z 2106/2206 VRB03KT P6SM SKC
     FM212000 20008KT P6SM SKC
     FM212300 21015KT P6SM SKC
     FM220400 19008KT P6SM SKC=



000
FTUS46 KLOX 210500
TAFWJF
TAF
KWJF 210522Z 2106/2206 24012KT P6SM SKC
     FM211200 VRB03KT P6SM SKC
     FM212100 24018KT P6SM VCTS FEW070CB
     FM220300 23012KT P6SM SKC=



000
FTUS46 KLOX 210500
TAFSMX
TAF
KSMX 210522Z 2106/2206 30008KT P6SM SKC
     FM210800 VRB03KT P6SM OVC005
     FM211100 VRB03KT 4SM BR OVC003
     FM211700 VRB03KT P6SM SKC
     FM212000 32012KT P6SM SKC
     FM220500 32007KT P6SM BKN005=



000
FTUS46 KLOX 210500
TAFSBP
TAF
KSBP 210522Z 2106/2206 31008KT P6SM SKC
     FM210900 VRB03KT P6SM OVC008
     FM211200 VRB03KT 6SM BR OVC005
     FM211600 VRB03KT P6SM SKC
     FM212000 31012KT P6SM SKC
     FM220500 32007KT P6SM SKC=



000
FTUS46 KLOX 210500
TAFPMD
TAF
KPMD 210522Z 2106/2206 VRB05KT P6SM SKC
     FM212100 24014KT P6SM VCTS FEW070CB
     FM220300 23010KT P6SM SKC=



000
FTUS46 KLOX 210500
TAFBUR
TAF
KBUR 210522Z 2106/2206 VRB03KT P6SM SKC
     FM211200 VRB03KT 6SM BR BKN008
     FM211600 VRB03KT P6SM SKC
     FM211900 17008KT P6SM SKC
     FM220400 VRB03KT P6SM SKC=



000
FTUS46 KLOX 210200 AAA
TAFWJF
TAF AMD
KWJF 210259Z 2103/2124 25010KT P6SM FEW080 SCT200
     FM212000 23012KT P6SM VCTS FEW070CB SCT120=



000
FTUS46 KLOX 210200 AAA
TAFPMD
TAF AMD
KPMD 210258Z 2103/2124 24010KT P6SM FEW080 SCT200
     FM210300 12008KT P6SM SCT120 BKN200
     FM210800 19006KT P6SM FEW120 SCT200
     FM211300 VRB03KT P6SM SKC
     FM212000 23012KT P6SM VCTS FEW070CB SCT120=



000
FTUS46 KLOX 210200 AAA
TAFSBA
TAF AMD
KSBA 210257Z 2103/2124 28008KT P6SM FEW080
     FM210500 VRB03KT P6SM SKC
     FM211000 10003KT P6SM BKN010
     FM211600 17005KT P6SM SCT015
     FM212000 24009KT P6SM FEW080=



000
FTUS46 KLOX 210200 AAA
TAFSMX
TAF AMD
KSMX 210257Z 2103/2124 30007KT P6SM SCT012
     FM210800 VRB03KT 6SM BR OVC007
     FM211000 00000KT 4SM BR OVC004
     FM211500 VRB03KT 6SM BR BKN007
     FM211700 30008KT P6SM SKC
     FM212100 30012KT P6SM SKC=



000
FTUS46 KLOX 210200 AAA
TAFBUR
TAF AMD
KBUR 210254Z 2103/2124 18010KT P6SM SCT070
     FM210400 14004KT P6SM FEW070 SCT200
     FM211300 VRB03KT P6SM OVC016
     FM211600 13004KT P6SM FEW025
     FM212000 18008KT P6SM SKC=



000
FTUS46 KLOX 210200 AAA
TAFVNY
TAF AMD
KVNY 210254Z 2103/2124 12005KT P6SM FEW070 SCT200
     FM211300 VRB03KT P6SM BKN015
     FM211600 11003KT P6SM FEW021
     FM212000 15008KT P6SM SKC=



000
FTUS46 KLOX 210200 AAA
TAFLAX
TAF AMD
KLAX 210253Z 2103/2206 26008KT P6SM SCT020
     FM210800 VRB03KT P6SM BKN020
     FM211800 26006KT P6SM SCT025
     FM212000 26012KT P6SM SKC
     FM220400 26006KT P6SM BKN012=



000
FTUS46 KLOX 210200 AAA
TAFLGB
TAF AMD
KLGB 210253Z 2103/2124 29007KT P6SM FEW027
     FM210800 VRB03KT P6SM BKN022
     FM211700 20008KT P6SM FEW027=



000
FTUS46 KLOX 202300
TAFPRB
TAF
KPRB 202330Z 2100/2124 20012G18KT P6SM SKC
     FM210300 20008KT P6SM SKC
     FM210600 VRB03KT P6SM SKC
     FM211300 00000KT 6SM BR SCT004
     FM211600 VRB03KT P6SM SKC
     FM212100 21012KT P6SM SKC=



000
FTUS46 KLOX 202300
TAFLAX
TAF
KLAX 202330Z 2100/2206 26012KT P6SM SCT080
     FM210330 26006KT P6SM BKN025
     FM210800 VRB03KT P6SM OVC020
     FM211800 26006KT P6SM SCT025
     FM212000 26012KT P6SM SKC
     FM220400 26006KT P6SM BKN012=



000
FTUS46 KLOX 202300
TAFWJF
TAF
KWJF 202330Z 2100/2124 22012G18KT P6SM VCTS SCT080CB SCT120 BKN200
     FM210300 10008KT P6SM SCT120 BKN200
     FM210700 VRB03KT P6SM FEW120 SCT200
     FM212000 23012KT P6SM VCTS FEW070CB SCT120=



000
FTUS46 KLOX 202300
TAFSBP
TAF
KSBP 202330Z 2100/2124 31010KT P6SM SKC
     FM210300 31008KT P6SM SCT017
     FM210700 31006KT P6SM BKN012
     FM210900 VRB03KT 6SM BR OVC007
     FM211100 00000KT 4SM BR OVC004
     FM211500 VRB03KT 6SM BR BKN007
     FM211700 30008KT P6SM SKC
     FM212100 30012KT P6SM SKC=



000
FTUS46 KLOX 202300
TAFSBA
TAF
KSBA 202330Z 2100/2124 25010KT P6SM FEW080
     FM210400 VRB03KT P6SM SKC
     FM210800 10003KT P6SM OVC015
     FM211600 17005KT P6SM SCT020
     FM212000 24009KT P6SM FEW080=



000
FTUS46 KLOX 202300
TAFLGB
TAF
KLGB 202330Z 2100/2124 19007KT P6SM SCT080
     FM210100 29007KT P6SM FEW025 SCT080 SCT200
     FM210500 VRB03KT P6SM BKN027
     FM210800 VRB03KT P6SM OVC022
     FM211700 20008KT P6SM FEW027=



000
FTUS46 KLOX 202300
TAFPMD
TAF
KPMD 202330Z 2100/2124 22010G16KT P6SM VCTS FEW080CB SCT120 BKN200
     FM210130 14008KT P6SM VCTS SCT080CB SCT120 BKN200
     FM210300 12008KT P6SM SCT120 BKN200
     FM210800 19006KT P6SM FEW120 SCT200
     FM211300 VRB03KT P6SM SKC
     FM212000 23012KT P6SM VCTS FEW070CB SCT120=



000
FTUS46 KLOX 202300
TAFVNY
TAF
KVNY 202330Z 2100/2124 15009KT P6SM SCT070
     FM210400 12003KT P6SM FEW070 SCT200
     FM210900 VRB03KT P6SM OVC014
     FM211300 VRB03KT P6SM OVC019
     FM211600 11003KT P6SM FEW024
     FM212000 15008KT P6SM SKC=



000
FTUS46 KLOX 202300
TAFSMX
TAF
KSMX 202330Z 2100/2124 30010KT P6SM FEW080
     FM210300 30007KT P6SM SCT017
     FM210500 30006KT P6SM BKN012
     FM210800 VRB03KT 6SM BR OVC007
     FM211000 00000KT 4SM BR OVC004
     FM211500 VRB03KT 6SM BR BKN007
     FM211700 30008KT P6SM SKC
     FM212100 30012KT P6SM SKC=



000
FTUS46 KLOX 202300
TAFBUR
TAF
KBUR 202330Z 2100/2124 18010KT P6SM SCT070
     FM210400 14004KT P6SM FEW070 SCT200
     FM210800 VRB03KT P6SM OVC015
     FM211300 VRB03KT P6SM OVC020
     FM211600 13004KT P6SM FEW025
     FM212000 18008KT P6SM SKC=



000
FTUS46 KLOX 202100 AAA
TAFWJF
TAF AMD
KWJF 202103Z 2021/2118 28010G17KT P6SM SKC
     FM202200 24018G25KT P6SM VCTS SCT080CB BKN120
     FM210300 24014KT P6SM SCT100
     FM210700 25010KT P6SM FEW120=



000
FTUS46 KLOX 202000 AAA
TAFLAX
TAF AMD
KLAX 202050Z 2021/2124 25015KT P6SM FEW030
     FM202300 26012KT P6SM SCT025 BKN100
     FM210400 26006KT P6SM BKN025
     FM210800 VRB03KT P6SM OVC020
     FM211700 26006KT P6SM SCT025
     FM212000 26012KT P6SM SKC=



000
FTUS46 KLOX 201700
TAFBUR
TAF
KBUR 201726Z 2018/2118 VRB05KT P6SM SCT024 SCT100
     FM201900 18010KT P6SM SCT100
     FM210300 VRB03KT P6SM SCT100
     FM210600 VRB03KT P6SM OVC017
     FM211100 VRB03KT P6SM OVC022=



000
FTUS46 KLOX 201700
TAFWJF
TAF
KWJF 201726Z 2018/2118 18003KT P6SM SKC
     FM202000 23014KT P6SM SCT080
     FM202200 24018KT P6SM VCTS SCT080CB BKN120
     FM210300 24014KT P6SM SCT100
     FM210700 25010KT P6SM FEW120=



000
FTUS46 KLOX 201700
TAFSBP
TAF
KSBP 201726Z 2018/2118 00000KT P6SM OVC021
     FM201900 31010KT P6SM SCT022
     FM210400 30007KT P6SM OVC020
     FM210700 VRB03KT P6SM OVC015=



000
FTUS46 KLOX 201700
TAFPMD
TAF
KPMD 201726Z 2018/2118 36003KT P6SM SKC
     FM202000 23010KT P6SM SCT080
     FM202200 24014KT P6SM VCTS SCT080CB BKN120
     FM210300 24012KT P6SM SCT100
     FM210800 21006KT P6SM FEW100=



000
FTUS46 KLOX 201700
TAFLAX
TAF
KLAX 201726Z 2018/2124 VRB04KT P6SM BKN035
     FM202000 26010KT P6SM SCT100
     FM202300 26012KT P6SM SCT025 BKN100
     FM210400 26006KT P6SM BKN025
     FM210800 VRB03KT P6SM OVC020
     FM211700 26006KT P6SM SCT025
     FM212000 26012KT P6SM SKC=



000
FTUS46 KLOX 201700
TAFPRB
TAF
KPRB 201726Z 2018/2118 00000KT P6SM OVC012
     FM201830 VRB03KT P6SM SKC
     FM201900 21010KT P6SM SKC
     FM202200 20015G22KT P6SM SKC
     FM210300 20008KT P6SM SKC
     FM210600 VRB03KT P6SM SKC=



000
FTUS46 KLOX 201700
TAFLGB
TAF
KLGB 201726Z 2018/2118 VRB03KT P6SM SCT029
     FM201900 19007KT P6SM SCT100
     FM210200 29007KT P6SM FEW025
     FM210600 VRB03KT P6SM OVC022=



000
FTUS46 KLOX 201700
TAFVNY
TAF
KVNY 201726Z 2018/2118 VRB06KT P6SM SCT024 SCT100
     FM201900 15008KT P6SM SCT100
     FM210300 VRB03KT P6SM SCT100
     FM210600 VRB03KT P6SM OVC017
     FM211100 VRB03KT P6SM OVC022=



000
FTUS46 KLOX 201700
TAFSMX
TAF
KSMX 201726Z 2018/2118 00000KT P6SM OVC023
     FM201900 31010KT P6SM FEW020
     FM210300 31008KT P6SM BKN020
     FM210600 VRB03KT P6SM OVC015=



000
FTUS46 KLOX 201700
TAFSBA
TAF
KSBA 201726Z 2018/2118 27006KT P6SM SCT029
     FM202200 24008KT P6SM FEW025
     FM210400 VRB03KT P6SM SKC
     FM210700 VRB03KT P6SM OVC015=



000
FTUS46 KLOX 201600 AAB
TAFLAX
TAF AMD
KLAX 201631Z 2017/2118 00000KT P6SM BKN027
     FM202000 26010KT P6SM BKN025
     FM202300 26012KT P6SM SCT025 BKN100
     FM210400 26006KT P6SM BKN025
     FM210800 VRB03KT P6SM OVC020=



000
FTUS46 KLOX 201600 AAA
TAFSBA
TAF AMD
KSBA 201631Z 2017/2112 25003KT P6SM BKN035
     FM201800 16006KT P6SM BKN025
     FM202200 24008KT P6SM FEW025
     FM210400 VRB03KT P6SM SKC
     FM210700 VRB03KT P6SM OVC015=



000
FTUS46 KLOX 201500 AAA
TAFVNY
TAF AMD
KVNY 201548Z 2016/2112 16003KT P6SM SCT019 SCT025
     FM201900 13007KT P6SM SCT035
     FM202200 14008KT P6SM FEW035 BKN100
     FM210300 VRB03KT P6SM FEW035
     FM210600 VRB03KT P6SM OVC020=



000
FTUS46 KLOX 201500 AAB
TAFBUR
TAF AMD
KBUR 201548Z 2016/2112 VRB03KT P6SM OVC020
     FM201900 13007KT P6SM SCT035
     FM202200 17008KT P6SM FEW035 BKN100
     FM210300 VRB03KT P6SM FEW035
     FM210600 VRB03KT P6SM OVC020=



000
FTUS46 KLOX 201500 AAB
TAFSMX
TAF AMD
KSMX 201547Z 2016/2112 00000KT 6SM BR FEW007 OVC021
     FM202100 31012KT P6SM FEW020
     FM210300 31008KT P6SM BKN020
     FM210600 VRB03KT P6SM OVC015=



000
FTUS46 KLOX 201500 AAA
TAFLAX
TAF AMD
KLAX 201502Z 2015/2118 08003KT P6SM FEW029 BKN050
     FM202000 26010KT P6SM BKN025
     FM202300 26012KT P6SM SCT025 BKN100
     FM210400 26006KT P6SM BKN025
     FM210800 VRB03KT P6SM OVC020=



000
FTUS46 KLOX 201300 AAA
TAFBUR
TAF AMD
KBUR 201300Z 2013/2112 VRB03KT P6SM OVC018
     FM201600 VRB03KT P6SM OVC022
     FM201900 13007KT P6SM SCT035
     FM202200 17008KT P6SM FEW035 BKN100
     FM210300 VRB03KT P6SM FEW035
     FM210600 VRB03KT P6SM OVC020=



000
FTUS46 KLOX 201200 AAA
TAFSMX
TAF AMD
KSMX 201243Z 2013/2112 VRB03KT P6SM OVC008
     FM201600 31006KT P6SM OVC012
     FM202100 31012KT P6SM FEW020
     FM210300 31008KT P6SM BKN020
     FM210600 VRB03KT P6SM OVC015=



000
FTUS46 KLOX 201100
TAFSMX
TAF
KSMX 201125Z 2012/2112 VRB03KT P6SM OVC015
     FM202100 31012KT P6SM FEW020
     FM210300 31008KT P6SM BKN020
     FM210600 VRB03KT P6SM OVC015=



000
FTUS46 KLOX 201100
TAFSBP
TAF
KSBP 201125Z 2012/2112 VRB03KT P6SM OVC015
     FM202000 31012KT P6SM SCT020
     FM210400 30007KT P6SM OVC020
     FM210700 VRB03KT P6SM OVC015=



000
FTUS46 KLOX 201100
TAFBUR
TAF
KBUR 201125Z 2012/2112 VRB03KT P6SM OVC022
     FM201900 13007KT P6SM SCT035
     FM202200 17008KT P6SM FEW035 BKN100
     FM210300 VRB03KT P6SM FEW035
     FM210600 VRB03KT P6SM OVC020=



000
FTUS46 KLOX 201100
TAFVNY
TAF
KVNY 201125Z 2012/2112 VRB03KT P6SM OVC022
     FM201900 13007KT P6SM SCT035
     FM202200 14008KT P6SM FEW035 BKN100
     FM210300 VRB03KT P6SM FEW035
     FM210600 VRB03KT P6SM OVC020=



000
FTUS46 KLOX 201100
TAFLGB
TAF
KLGB 201125Z 2012/2112 VRB03KT P6SM OVC025
     FM201900 19007KT P6SM BKN035
     FM202200 17008KT P6SM FEW035 BKN100
     FM210200 29007KT P6SM FEW025
     FM210600 VRB03KT P6SM OVC022=



000
FTUS46 KLOX 201100
TAFSBA
TAF
KSBA 201125Z 2012/2112 VRB03KT P6SM OVC020
     FM201800 16006KT P6SM BKN025
     FM202200 24008KT P6SM FEW025
     FM210400 VRB03KT P6SM SKC
     FM210700 VRB03KT P6SM OVC015=



000
FTUS46 KLOX 201100
TAFWJF
TAF
KWJF 201125Z 2012/2112 29008KT P6SM SKC
     FM201500 VRB03KT P6SM SKC
     FM202000 23014KT P6SM SCT080
     FM202200 24018KT P6SM VCTS SCT080CB BKN120
     FM210300 24014KT P6SM SCT100
     FM210700 25010KT P6SM FEW120=



000
FTUS46 KLOX 201100
TAFLAX
TAF
KLAX 201125Z 2012/2118 VRB03KT P6SM OVC022
     FM202000 26010KT P6SM BKN025
     FM202300 26012KT P6SM SCT025 BKN100
     FM210400 26006KT P6SM BKN025
     FM210800 VRB03KT P6SM OVC020=



000
FTUS46 KLOX 201100
TAFPMD
TAF
KPMD 201125Z 2012/2112 21007KT P6SM SKC
     FM201400 VRB03KT P6SM SKC
     FM202000 23010KT P6SM SCT080
     FM202200 24014KT P6SM VCTS SCT080CB BKN120
     FM210300 24012KT P6SM SCT100
     FM210800 21006KT P6SM FEW100=



000
FTUS46 KLOX 201100
TAFPRB
TAF
KPRB 201125Z 2012/2112 VRB03KT P6SM OVC008
     FM201600 VRB03KT P6SM OVC012
     FM201900 21010KT P6SM SKC
     FM202200 20014G22KT P6SM SKC
     FM210300 20012KT P6SM SKC
     FM210600 VRB03KT P6SM SKC=



000
FTUS46 KLOX 201000 AAA
TAFVNY
TAF AMD
KVNY 201015Z 2010/2106 VRB03KT P6SM OVC018
     FM201200 VRB03KT P6SM OVC022
     FM201900 15008KT P6SM SCT035
     FM210300 VRB03KT P6SM SCT050=



000
FTUS46 KLOX 201000 AAB
TAFSBA
TAF AMD
KSBA 201015Z 2010/2106 VRB03KT P6SM OVC020
     FM202100 24008KT P6SM BKN025
     FM210200 VRB03KT P6SM FEW025=



000
FTUS46 KLOX 200800 AAA
TAFLAX
TAF AMD
KLAX 200850Z 2009/2112 VRB03KT P6SM OVC022
     FM202000 26010KT P6SM BKN025
     FM202300 26012KT P6SM SCT025
     FM210400 26006KT P6SM BKN025=



000
FTUS46 KLOX 200700 AAB
TAFSMX
TAF AMD
KSMX 200737Z 2008/2106 VRB03KT P6SM BKN018
     FM201400 VRB03KT P6SM OVC020
     FM202100 31012KT P6SM FEW020
     FM210300 31008KT P6SM OVC015=



000
FTUS46 KLOX 200700 AAA
TAFSBA
TAF AMD
KSBA 200718Z 2007/2106 VRB03KT P6SM BKN025
     FM201000 VRB03KT P6SM OVC015
     FM201400 VRB03KT P6SM OVC022
     FM202100 24008KT P6SM BKN025
     FM210200 VRB03KT P6SM FEW025=



000
FTUS46 KLOX 200700 AAA
TAFSMX
TAF AMD
KSMX 200706Z 2007/2106 VRB03KT P6SM SCT018
     FM200900 VRB03KT P6SM OVC015
     FM202100 31012KT P6SM FEW020
     FM210300 31008KT P6SM OVC015=



000
FTUS46 KLOX 200700 AAA
TAFBUR
TAF AMD
KBUR 200706Z 2007/2106 VRB03KT P6SM OVC022
     FM201900 17008KT P6SM SCT035
     FM210300 VRB03KT P6SM SCT050=



000
FTUS46 KLOX 200700 AAA
TAFSBP
TAF AMD
KSBP 200706Z 2007/2106 VRB03KT P6SM OVC018
     FM202000 31012KT P6SM SCT025
     FM210400 30006KT P6SM OVC025=



000
FTUS46 KLOX 200500
TAFWJF
TAF
KWJF 200527Z 2006/2106 23014KT P6SM SKC
     FM200900 23008KT P6SM SKC
     FM202000 23014KT P6SM SCT080
     FM202200 24018KT P6SM VCTS SCT080CB
     FM210300 24014KT P6SM SCT100=



000
FTUS46 KLOX 200500
TAFPMD
TAF
KPMD 200527Z 2006/2106 30010KT P6SM SKC
     FM200900 21007KT P6SM SKC
     FM201400 VRB03KT P6SM SKC
     FM202000 23010KT P6SM SCT080
     FM202200 24014KT P6SM VCTS SCT080CB
     FM210300 24012KT P6SM SCT100=



000
FTUS46 KLOX 200500
TAFLGB
TAF
KLGB 200527Z 2006/2106 VRB03KT P6SM OVC022
     FM201900 19007KT P6SM BKN025
     FM202200 17008KT P6SM FEW025
     FM210200 29007KT P6SM FEW025=



000
FTUS46 KLOX 200500
TAFVNY
TAF
KVNY 200527Z 2006/2106 VRB03KT P6SM OVC018
     FM200800 VRB03KT P6SM OVC022
     FM201900 15008KT P6SM SCT035
     FM210300 VRB03KT P6SM SCT050=



000
FTUS46 KLOX 200500
TAFBUR
TAF
KBUR 200527Z 2006/2106 VRB03KT P6SM OVC015
     FM200900 VRB03KT P6SM OVC022
     FM201900 17008KT P6SM SCT035
     FM210300 VRB03KT P6SM SCT050=



000
FTUS46 KLOX 200500
TAFSMX
TAF
KSMX 200527Z 2006/2106 VRB03KT P6SM OVC022
     FM200800 VRB03KT P6SM OVC015
     FM202100 31012KT P6SM FEW020
     FM210300 31008KT P6SM OVC015=



000
FTUS46 KLOX 200500
TAFSBA
TAF
KSBA 200527Z 2006/2106 VRB03KT P6SM FEW015
     FM201000 VRB03KT P6SM OVC015
     FM201400 VRB03KT P6SM OVC022
     FM202100 24008KT P6SM BKN025
     FM210200 VRB03KT P6SM FEW025=



000
FTUS46 KLOX 200500
TAFLAX
TAF
KLAX 200527Z 2006/2112 26008KT P6SM OVC022
     FM200800 VRB03KT P6SM OVC025
     FM202000 26010KT P6SM BKN025
     FM202300 26012KT P6SM SCT025
     FM210400 26006KT P6SM BKN025=



000
FTUS46 KLOX 200500
TAFPRB
TAF
KPRB 200527Z 2006/2106 VRB05KT P6SM SKC
     FM200900 VRB03KT P6SM OVC012
     FM201900 21010KT P6SM SKC
     FM202200 20014G22KT P6SM SKC
     FM210300 20012KT P6SM SKC=



000
FTUS46 KLOX 200500
TAFSBP
TAF
KSBP 200527Z 2006/2106 VRB03KT P6SM OVC025
     FM200900 VRB03KT P6SM OVC018
     FM202000 31012KT P6SM SCT025
     FM210400 30006KT P6SM OVC025=



000
FTUS46 KLOX 200400 AAA
TAFVNY
TAF AMD
KVNY 200439Z 2005/2024 VRB03KT P6SM OVC018
     FM200700 14005KT P6SM -DZ OVC015
     FM201300 14005KT P6SM VCSH OVC020
     FM202000 14010KT P6SM VCSH SCT030=



000
FTUS46 KLOX 200400 AAB
TAFLAX
TAF AMD
KLAX 200409Z 2004/2106 26008KT P6SM SCT015 OVC025
     FM200700 VRB03KT P6SM -DZ BKN010 OVC020
     FM201300 15006KT P6SM VCSH OVC025
     FM201800 24007KT P6SM VCSH BKN030
     FM202000 25012KT P6SM BKN030
     FM210300 25006KT P6SM BKN020=



000
FTUS46 KLOX 200400 AAB
TAFLGB
TAF AMD
KLGB 200409Z 2004/2024 VRB03KT P6SM FEW015 OVC025
     FM200700 15006KT P6SM -DZ OVC022
     FM201300 15006KT P6SM VCSH OVC025
     FM201900 19008KT P6SM BKN030=



000
FTUS46 KLOX 200400 AAC
TAFSMX
TAF AMD
KSMX 200409Z 2004/2024 32007KT P6SM OVC022
     FM200700 VRB03KT P6SM OVC015
     FM202000 30010KT P6SM SCT022=



000
FTUS46 KLOX 200300 AAA
TAFBUR
TAF AMD
KBUR 200340Z 2004/2024 VRB03KT P6SM BKN015
     FM200700 15007KT P6SM -DZ OVC015
     FM201300 15007KT P6SM VCSH OVC020
     FM202000 16010KT P6SM VCSH SCT030=



000
FTUS46 KLOX 200200 AAA
TAFLGB
TAF AMD
KLGB 200258Z 2003/2024 18006KT P6SM BKN015 BKN180
     FM200700 15006KT P6SM -DZ OVC022
     FM201300 15006KT P6SM VCSH OVC025
     FM201900 19008KT P6SM BKN030=



000
FTUS46 KLOX 200200 AAA
TAFSBP
TAF AMD
KSBP 200257Z 2003/2024 30008KT P6SM BKN020
     FM200500 30007KT P6SM OVC015
     FM200700 VRB03KT P6SM OVC015
     FM202000 29010KT P6SM SCT022=



000
FTUS46 KLOX 200200 AAA
TAFSBA
TAF AMD
KSBA 200256Z 2003/2024 25009KT P6SM FEW025
     FM200500 VRB03KT P6SM OVC015
     FM200700 VRB03KT P6SM -DZ BKN010 OVC020
     FM201800 16007KT P6SM OVC025
     FM202100 24008KT P6SM BKN025=



000
FTUS46 KLOX 200200 AAB
TAFSMX
TAF AMD
KSMX 200255Z 2003/2024 30010KT P6SM BKN025
     FM200400 30010KT P6SM OVC015
     FM200700 VRB03KT 6SM BR OVC008
     FM201500 VRB03KT P6SM OVC015
     FM202000 30010KT P6SM SCT022=



000
FTUS46 KLOX 200200 AAA
TAFLAX
TAF AMD
KLAX 200251Z 2003/2106 26008KT P6SM BKN015 BKN180
     FM200700 VRB03KT P6SM -DZ BKN010 OVC020
     FM201300 15006KT P6SM VCSH OVC025
     FM201800 24007KT P6SM VCSH BKN030
     FM202000 25012KT P6SM BKN030
     FM210300 25006KT P6SM BKN020=



000
FTUS46 KLOX 200200 AAA
TAFSMX
TAF AMD
KSMX 200245Z 2003/2024 30010KT P6SM SCT025
     FM200400 30010KT P6SM OVC015
     FM200700 VRB03KT 6SM BR OVC008
     FM201500 VRB03KT P6SM OVC015
     FM202000 30010KT P6SM SCT022=



    US Dept of Commerce
    National Oceanic and Atmospheric Administration
    National Weather Service
    1325 East West Highway
    Silver Spring, MD 20910
    Page Author: NWS Internet Services Team
Disclaimer
Information Quality
Credits
Glossary
Privacy Policy
Freedom of Information Act (FOIA)
About Us
Career Opportunities